sensor_id;sensor_type;location;lat;lon;timestamp;pressure;altitude;pressure_sealevel;temperature;humidity
45323;BME280;31382;50.200;8.674;2023-07-31T00:03:58;100090.22;;;20.03;55.03
45323;BME280;31382;50.200;8.674;2023-07-31T00:09:00;100098.06;;;19.99;55.22
45323;BME280;31382;50.200;8.674;2023-07-31T00:14:01;100106.47;;;19.81;55.77
45323;BME280;31382;50.200;8.674;2023-07-31T00:19:03;100093.81;;;19.75;56.63
45323;BME280;31382;50.200;8.674;2023-07-31T00:24:04;100106.13;;;19.66;57.11
45323;BME280;31382;50.200;8.674;2023-07-31T00:29:06;100102.34;;;19.55;57.38
45323;BME280;31382;50.200;8.674;2023-07-31T00:34:07;100103.59;;;19.47;57.63
45323;BME280;31382;50.200;8.674;2023-07-31T00:39:08;100096.13;;;19.31;58.25
45323;BME280;31382;50.200;8.674;2023-07-31T00:44:10;100103.25;;;19.32;58.53
45323;BME280;31382;50.200;8.674;2023-07-31T00:49:11;100094.97;;;19.15;59.64
45323;BME280;31382;50.200;8.674;2023-07-31T00:54:13;100083.28;;;18.91;60.55
45323;BME280;31382;50.200;8.674;2023-07-31T00:59:15;100096.16;;;18.83;61.43
45323;BME280;31382;50.200;8.674;2023-07-31T01:04:17;100088.84;;;18.84;61.54
45323;BME280;31382;50.200;8.674;2023-07-31T01:09:46;100087.28;;;18.76;61.95
45323;BME280;31382;50.200;8.674;2023-07-31T01:20:05;100069.19;;;18.82;62.44
45323;BME280;31382;50.200;8.674;2023-07-31T01:25:26;100068.13;;;18.83;62.42
45323;BME280;31382;50.200;8.674;2023-07-31T01:30:33;100062.88;;;18.93;62.31
45323;BME280;31382;50.200;8.674;2023-07-31T01:35:37;100074.16;;;18.97;62.71
45323;BME280;31382;50.200;8.674;2023-07-31T01:40:41;100060.16;;;18.93;62.85
45323;BME280;31382;50.200;8.674;2023-07-31T01:45:43;100059.81;;;18.90;63.05
45323;BME280;31382;50.200;8.674;2023-07-31T01:50:44;100045.59;;;18.88;63.17
45323;BME280;31382;50.200;8.674;2023-07-31T01:55:46;100038.75;;;18.85;63.11
45323;BME280;31382;50.200;8.674;2023-07-31T02:00:47;100033.66;;;18.89;63.32
45323;BME280;31382;50.200;8.674;2023-07-31T02:05:49;100029.00;;;19.01;63.14
45323;BME280;31382;50.200;8.674;2023-07-31T02:10:51;100016.78;;;19.03;63.07
45323;BME280;31382;50.200;8.674;2023-07-31T02:15:53;100014.78;;;19.11;62.78
45323;BME280;31382;50.200;8.674;2023-07-31T02:20:55;100026.72;;;19.21;62.37
45323;BME280;31382;50.200;8.674;2023-07-31T02:25:56;100018.78;;;19.20;62.45
45323;BME280;31382;50.200;8.674;2023-07-31T02:30:57;100016.41;;;19.24;62.27
45323;BME280;31382;50.200;8.674;2023-07-31T02:35:59;100017.59;;;19.28;62.60
45323;BME280;31382;50.200;8.674;2023-07-31T02:41:00;100014.38;;;19.31;62.31
45323;BME280;31382;50.200;8.674;2023-07-31T02:46:02;100024.44;;;19.30;61.96
45323;BME280;31382;50.200;8.674;2023-07-31T02:51:03;100020.41;;;19.33;61.64
45323;BME280;31382;50.200;8.674;2023-07-31T02:56:05;100018.84;;;19.37;61.59
45323;BME280;31382;50.200;8.674;2023-07-31T03:01:06;100020.88;;;19.41;61.45
45323;BME280;31382;50.200;8.674;2023-07-31T03:06:07;100001.22;;;19.56;60.77
45323;BME280;31382;50.200;8.674;2023-07-31T03:11:09;100014.47;;;19.65;60.26
45323;BME280;31382;50.200;8.674;2023-07-31T03:16:11;100017.00;;;19.54;60.70
45323;BME280;31382;50.200;8.674;2023-07-31T03:21:12;100020.31;;;19.56;60.43
45323;BME280;31382;50.200;8.674;2023-07-31T03:26:14;100010.88;;;19.47;60.60
45323;BME280;31382;50.200;8.674;2023-07-31T03:31:15;100014.84;;;19.56;60.85
45323;BME280;31382;50.200;8.674;2023-07-31T03:36:17;100014.16;;;19.61;60.47
45323;BME280;31382;50.200;8.674;2023-07-31T03:41:18;100012.59;;;19.65;60.02
45323;BME280;31382;50.200;8.674;2023-07-31T03:46:20;100018.97;;;19.71;59.72
45323;BME280;31382;50.200;8.674;2023-07-31T03:51:21;100018.25;;;19.75;59.84
45323;BME280;31382;50.200;8.674;2023-07-31T03:56:25;100023.19;;;19.78;59.74
45323;BME280;31382;50.200;8.674;2023-07-31T04:01:26;100027.44;;;19.86;59.69
45323;BME280;31382;50.200;8.674;2023-07-31T04:06:30;100013.72;;;19.81;59.43
45323;BME280;31382;50.200;8.674;2023-07-31T04:11:32;99997.44;;;19.86;59.27
45323;BME280;31382;50.200;8.674;2023-07-31T04:16:33;99996.44;;;19.92;59.06
45323;BME280;31382;50.200;8.674;2023-07-31T04:21:35;99986.88;;;20.07;58.67
45323;BME280;31382;50.200;8.674;2023-07-31T04:26:36;99987.28;;;20.15;58.54
45323;BME280;31382;50.200;8.674;2023-07-31T04:31:38;99988.09;;;20.16;58.45
45323;BME280;31382;50.200;8.674;2023-07-31T04:36:40;99990.94;;;20.21;58.44
45323;BME280;31382;50.200;8.674;2023-07-31T04:41:42;99988.78;;;20.23;57.92
45323;BME280;31382;50.200;8.674;2023-07-31T04:46:43;99988.78;;;20.23;58.00
45323;BME280;31382;50.200;8.674;2023-07-31T04:51:44;99987.09;;;20.22;57.90
45323;BME280;31382;50.200;8.674;2023-07-31T04:56:46;99993.09;;;20.36;57.61
45323;BME280;31382;50.200;8.674;2023-07-31T05:01:48;99983.22;;;20.35;57.51
45323;BME280;31382;50.200;8.674;2023-07-31T05:06:50;99989.59;;;20.24;57.48
45323;BME280;31382;50.200;8.674;2023-07-31T05:11:51;99985.63;;;20.31;57.55
45323;BME280;31382;50.200;8.674;2023-07-31T05:16:53;99977.34;;;20.43;57.16
45323;BME280;31382;50.200;8.674;2023-07-31T05:21:54;99987.09;;;20.56;56.56
45323;BME280;31382;50.200;8.674;2023-07-31T05:26:56;99987.25;;;20.66;56.51
45323;BME280;31382;50.200;8.674;2023-07-31T05:31:57;99990.00;;;20.66;56.21
45323;BME280;31382;50.200;8.674;2023-07-31T05:36:59;99983.16;;;20.64;56.39
45323;BME280;31382;50.200;8.674;2023-07-31T05:42:00;99984.69;;;20.59;56.58
45323;BME280;31382;50.200;8.674;2023-07-31T05:47:02;99981.16;;;20.59;56.37
45323;BME280;31382;50.200;8.674;2023-07-31T05:52:03;99981.63;;;20.56;56.65
45323;BME280;31382;50.200;8.674;2023-07-31T05:57:05;99968.72;;;20.51;56.79
45323;BME280;31382;50.200;8.674;2023-07-31T06:02:06;99967.25;;;20.60;56.21
45323;BME280;31382;50.200;8.674;2023-07-31T06:07:08;99959.28;;;20.59;56.00
45323;BME280;31382;50.200;8.674;2023-07-31T06:12:09;99954.50;;;20.66;56.33
45323;BME280;31382;50.200;8.674;2023-07-31T06:17:11;99951.06;;;20.76;55.81
45323;BME280;31382;50.200;8.674;2023-07-31T06:22:12;99960.44;;;20.85;56.04
45323;BME280;31382;50.200;8.674;2023-07-31T06:27:14;99953.44;;;20.89;55.61
45323;BME280;31382;50.200;8.674;2023-07-31T06:32:15;99963.03;;;20.92;55.74
45323;BME280;31382;50.200;8.674;2023-07-31T06:37:17;99949.59;;;20.90;55.55
45323;BME280;31382;50.200;8.674;2023-07-31T06:42:18;99966.56;;;20.92;55.15
45323;BME280;31382;50.200;8.674;2023-07-31T06:47:20;99968.28;;;20.98;55.19
45323;BME280;31382;50.200;8.674;2023-07-31T06:52:21;99957.44;;;21.04;55.18
45323;BME280;31382;50.200;8.674;2023-07-31T06:57:23;99943.44;;;21.00;55.18
45323;BME280;31382;50.200;8.674;2023-07-31T07:02:25;99957.84;;;21.17;55.30
45323;BME280;31382;50.200;8.674;2023-07-31T07:07:26;99957.50;;;21.36;54.86
45323;BME280;31382;50.200;8.674;2023-07-31T07:12:30;99949.31;;;21.36;54.57
45323;BME280;31382;50.200;8.674;2023-07-31T07:17:31;99951.00;;;21.42;54.34
45323;BME280;31382;50.200;8.674;2023-07-31T07:22:33;99927.56;;;21.46;54.26
45323;BME280;31382;50.200;8.674;2023-07-31T07:27:34;99919.81;;;21.65;54.11
45323;BME280;31382;50.200;8.674;2023-07-31T07:32:36;99913.53;;;21.70;53.93
45323;BME280;31382;50.200;8.674;2023-07-31T07:37:37;99915.53;;;21.74;53.57
45323;BME280;31382;50.200;8.674;2023-07-31T07:42:38;99915.47;;;21.69;53.84
45323;BME280;31382;50.200;8.674;2023-07-31T07:47:40;99908.69;;;21.77;53.47
45323;BME280;31382;50.200;8.674;2023-07-31T07:52:42;99910.91;;;21.80;53.43
45323;BME280;31382;50.200;8.674;2023-07-31T07:57:43;99914.31;;;21.97;53.22
45323;BME280;31382;50.200;8.674;2023-07-31T08:02:46;99905.66;;;22.11;52.76
45323;BME280;31382;50.200;8.674;2023-07-31T08:07:47;99914.38;;;22.03;53.21
45323;BME280;31382;50.200;8.674;2023-07-31T08:12:49;99895.50;;;22.06;53.42
45323;BME280;31382;50.200;8.674;2023-07-31T08:17:50;99897.84;;;22.25;52.98
45323;BME280;31382;50.200;8.674;2023-07-31T08:22:52;99891.31;;;22.31;52.71
45323;BME280;31382;50.200;8.674;2023-07-31T08:27:54;99889.25;;;22.53;52.58
45323;BME280;31382;50.200;8.674;2023-07-31T08:32:56;99883.22;;;22.56;52.71
45323;BME280;31382;50.200;8.674;2023-07-31T08:37:57;99867.44;;;22.84;52.40
45323;BME280;31382;50.200;8.674;2023-07-31T08:42:59;99875.69;;;22.89;52.30
45323;BME280;31382;50.200;8.674;2023-07-31T08:48:03;99868.56;;;22.93;51.96
45323;BME280;31382;50.200;8.674;2023-07-31T08:53:05;99865.59;;;23.05;51.51
45323;BME280;31382;50.200;8.674;2023-07-31T08:58:07;99872.72;;;23.06;51.10
45323;BME280;31382;50.200;8.674;2023-07-31T09:03:14;99878.75;;;23.08;51.30
45323;BME280;31382;50.200;8.674;2023-07-31T09:08:21;99874.94;;;23.20;51.12
45323;BME280;31382;50.200;8.674;2023-07-31T09:13:22;99859.06;;;23.16;51.00
45323;BME280;31382;50.200;8.674;2023-07-31T09:18:24;99864.50;;;23.06;51.11
45323;BME280;31382;50.200;8.674;2023-07-31T09:23:25;99854.31;;;23.02;51.51
45323;BME280;31382;50.200;8.674;2023-07-31T09:28:31;99859.81;;;23.02;51.44
45323;BME280;31382;50.200;8.674;2023-07-31T09:33:32;99848.25;;;22.84;51.78
45323;BME280;31382;50.200;8.674;2023-07-31T09:38:34;99854.75;;;22.57;52.83
45323;BME280;31382;50.200;8.674;2023-07-31T09:43:37;99869.38;;;22.31;53.32
45323;BME280;31382;50.200;8.674;2023-07-31T09:48:39;99858.25;;;22.05;54.68
45323;BME280;31382;50.200;8.674;2023-07-31T09:53:40;99851.44;;;22.08;54.90
45323;BME280;31382;50.200;8.674;2023-07-31T09:58:41;99836.19;;;22.22;54.96
45323;BME280;31382;50.200;8.674;2023-07-31T10:03:45;99841.00;;;22.52;54.01
45323;BME280;31382;50.200;8.674;2023-07-31T10:08:47;99809.56;;;22.70;54.02
45323;BME280;31382;50.200;8.674;2023-07-31T10:13:50;99808.53;;;22.97;53.54
45323;BME280;31382;50.200;8.674;2023-07-31T10:18:53;99802.28;;;23.27;52.39
45323;BME280;31382;50.200;8.674;2023-07-31T10:23:56;99796.50;;;23.65;51.69
45323;BME280;31382;50.200;8.674;2023-07-31T10:28:58;99793.78;;;23.80;50.98
45323;BME280;31382;50.200;8.674;2023-07-31T10:33:59;99788.78;;;23.87;50.30
45323;BME280;31382;50.200;8.674;2023-07-31T10:39:03;99778.13;;;23.81;49.93
45323;BME280;31382;50.200;8.674;2023-07-31T10:44:06;99767.88;;;24.12;49.66
45323;BME280;31382;50.200;8.674;2023-07-31T10:49:08;99781.06;;;24.05;48.96
45323;BME280;31382;50.200;8.674;2023-07-31T10:54:10;99769.00;;;24.06;48.70
45323;BME280;31382;50.200;8.674;2023-07-31T10:59:13;99766.56;;;23.94;48.94
45323;BME280;31382;50.200;8.674;2023-07-31T11:04:21;99760.25;;;23.93;48.66
45323;BME280;31382;50.200;8.674;2023-07-31T11:09:27;99746.44;;;24.19;48.39
45323;BME280;31382;50.200;8.674;2023-07-31T11:14:28;99752.63;;;24.45;47.88
45323;BME280;31382;50.200;8.674;2023-07-31T11:19:30;99744.63;;;24.49;47.47
45323;BME280;31382;50.200;8.674;2023-07-31T11:24:31;99736.63;;;24.58;46.95
45323;BME280;31382;50.200;8.674;2023-07-31T11:29:33;99727.69;;;24.81;46.03
45323;BME280;31382;50.200;8.674;2023-07-31T11:34:51;99731.75;;;25.23;45.54
45323;BME280;31382;50.200;8.674;2023-07-31T11:39:59;99718.41;;;25.06;44.98
45323;BME280;31382;50.200;8.674;2023-07-31T11:45:05;99732.31;;;24.86;45.36
45323;BME280;31382;50.200;8.674;2023-07-31T11:50:10;99719.72;;;24.80;45.19
45323;BME280;31382;50.200;8.674;2023-07-31T11:55:12;99701.66;;;25.03;45.30
45323;BME280;31382;50.200;8.674;2023-07-31T12:00:16;99714.84;;;25.40;44.79
45323;BME280;31382;50.200;8.674;2023-07-31T12:05:19;99712.72;;;25.32;44.20
45323;BME280;31382;50.200;8.674;2023-07-31T12:10:28;99704.56;;;25.22;44.16
45323;BME280;31382;50.200;8.674;2023-07-31T12:15:38;99688.47;;;25.34;44.12
45323;BME280;31382;50.200;8.674;2023-07-31T12:20:42;99697.56;;;25.35;44.30
45323;BME280;31382;50.200;8.674;2023-07-31T12:25:44;99701.06;;;25.40;43.93
45323;BME280;31382;50.200;8.674;2023-07-31T12:30:45;99689.59;;;25.33;43.88
45323;BME280;31382;50.200;8.674;2023-07-31T12:35:47;99684.59;;;25.35;44.07
45323;BME280;31382;50.200;8.674;2023-07-31T12:40:48;99678.47;;;25.43;44.13
45323;BME280;31382;50.200;8.674;2023-07-31T12:45:50;99662.25;;;25.66;43.47
45323;BME280;31382;50.200;8.674;2023-07-31T12:50:51;99647.59;;;25.95;43.00
45323;BME280;31382;50.200;8.674;2023-07-31T12:55:53;99647.50;;;26.05;43.30
45323;BME280;31382;50.200;8.674;2023-07-31T13:00:54;99630.81;;;26.15;42.83
45323;BME280;31382;50.200;8.674;2023-07-31T13:05:56;99623.72;;;26.47;42.16
45323;BME280;31382;50.200;8.674;2023-07-31T13:10:58;99632.16;;;26.37;42.49
45323;BME280;31382;50.200;8.674;2023-07-31T13:15:59;99625.59;;;26.33;42.34
45323;BME280;31382;50.200;8.674;2023-07-31T13:21:01;99625.66;;;26.27;41.67
45323;BME280;31382;50.200;8.674;2023-07-31T13:26:02;99627.00;;;26.30;42.19
45323;BME280;31382;50.200;8.674;2023-07-31T13:31:03;99645.78;;;26.09;42.12
45323;BME280;31382;50.200;8.674;2023-07-31T13:36:05;99621.72;;;25.96;42.51
45323;BME280;31382;50.200;8.674;2023-07-31T13:41:07;99629.38;;;25.99;42.09
45323;BME280;31382;50.200;8.674;2023-07-31T13:46:08;99616.88;;;26.06;42.50
45323;BME280;31382;50.200;8.674;2023-07-31T13:51:12;99610.84;;;26.04;42.60
45323;BME280;31382;50.200;8.674;2023-07-31T13:56:13;99613.91;;;26.03;42.27
45323;BME280;31382;50.200;8.674;2023-07-31T14:01:15;99613.56;;;25.85;43.08
45323;BME280;31382;50.200;8.674;2023-07-31T14:06:16;99612.06;;;25.74;43.14
45323;BME280;31382;50.200;8.674;2023-07-31T14:11:18;99617.41;;;25.65;43.23
45323;BME280;31382;50.200;8.674;2023-07-31T14:16:19;99613.81;;;25.41;44.14
45323;BME280;31382;50.200;8.674;2023-07-31T14:21:21;99607.25;;;25.12;44.05
45323;BME280;31382;50.200;8.674;2023-07-31T14:26:22;99598.00;;;25.27;43.90
45323;BME280;31382;50.200;8.674;2023-07-31T14:31:24;99610.03;;;25.07;45.21
45323;BME280;31382;50.200;8.674;2023-07-31T14:36:25;99590.50;;;25.09;44.65
45323;BME280;31382;50.200;8.674;2023-07-31T14:41:26;99578.03;;;25.22;44.42
45323;BME280;31382;50.200;8.674;2023-07-31T14:46:28;99572.63;;;25.36;44.27
45323;BME280;31382;50.200;8.674;2023-07-31T14:51:29;99586.56;;;25.44;44.09
45323;BME280;31382;50.200;8.674;2023-07-31T14:56:31;99587.59;;;25.48;44.30
45323;BME280;31382;50.200;8.674;2023-07-31T15:01:33;99574.25;;;25.37;44.31
45323;BME280;31382;50.200;8.674;2023-07-31T15:06:34;99577.91;;;25.32;44.73
45323;BME280;31382;50.200;8.674;2023-07-31T15:11:36;99584.09;;;25.13;45.20
45323;BME280;31382;50.200;8.674;2023-07-31T15:16:37;99577.13;;;24.97;44.97
45323;BME280;31382;50.200;8.674;2023-07-31T15:21:39;99595.97;;;24.85;45.78
45323;BME280;31382;50.200;8.674;2023-07-31T15:26:40;99582.59;;;24.73;45.78
45323;BME280;31382;50.200;8.674;2023-07-31T15:31:43;99582.16;;;24.61;45.91
45323;BME280;31382;50.200;8.674;2023-07-31T15:36:45;99584.25;;;24.34;46.28
45323;BME280;31382;50.200;8.674;2023-07-31T15:41:46;99577.97;;;24.29;46.24
45323;BME280;31382;50.200;8.674;2023-07-31T15:46:48;99573.59;;;24.28;45.93
45323;BME280;31382;50.200;8.674;2023-07-31T15:51:49;99576.69;;;24.16;46.51
45323;BME280;31382;50.200;8.674;2023-07-31T15:56:51;99587.78;;;24.01;47.16
45323;BME280;31382;50.200;8.674;2023-07-31T16:01:52;99574.13;;;23.85;47.15
45323;BME280;31382;50.200;8.674;2023-07-31T16:06:54;99583.00;;;23.67;46.81
45323;BME280;31382;50.200;8.674;2023-07-31T16:11:56;99570.41;;;23.55;47.03
45323;BME280;31382;50.200;8.674;2023-07-31T16:16:57;99575.72;;;23.36;47.96
45323;BME280;31382;50.200;8.674;2023-07-31T16:21:58;99579.81;;;23.34;48.69
45323;BME280;31382;50.200;8.674;2023-07-31T16:27:00;99569.97;;;23.28;48.98
45323;BME280;31382;50.200;8.674;2023-07-31T16:32:01;99572.72;;;23.33;49.00
45323;BME280;31382;50.200;8.674;2023-07-31T16:37:03;99570.28;;;23.16;50.04
45323;BME280;31382;50.200;8.674;2023-07-31T16:42:05;99542.00;;;23.31;49.42
45323;BME280;31382;50.200;8.674;2023-07-31T16:47:07;99540.66;;;23.28;49.41
45323;BME280;31382;50.200;8.674;2023-07-31T16:52:08;99542.56;;;23.28;49.40
45323;BME280;31382;50.200;8.674;2023-07-31T16:57:10;99529.91;;;23.37;49.21
45323;BME280;31382;50.200;8.674;2023-07-31T17:02:11;99512.38;;;23.38;49.06
45323;BME280;31382;50.200;8.674;2023-07-31T17:07:13;99528.25;;;23.41;49.01
45323;BME280;31382;50.200;8.674;2023-07-31T17:12:14;99520.81;;;23.47;48.76
45323;BME280;31382;50.200;8.674;2023-07-31T17:17:16;99521.34;;;23.49;48.55
45323;BME280;31382;50.200;8.674;2023-07-31T17:22:17;99522.81;;;23.31;49.49
45323;BME280;31382;50.200;8.674;2023-07-31T17:27:19;99533.53;;;23.22;49.39
45323;BME280;31382;50.200;8.674;2023-07-31T17:32:20;99514.13;;;22.98;50.65
45323;BME280;31382;50.200;8.674;2023-07-31T17:37:24;99512.28;;;22.16;53.36
45323;BME280;31382;50.200;8.674;2023-07-31T17:42:26;99522.88;;;21.62;55.09
45323;BME280;31382;50.200;8.674;2023-07-31T17:47:28;99505.22;;;21.22;56.47
45323;BME280;31382;50.200;8.674;2023-07-31T17:52:29;99505.56;;;20.77;57.61
45323;BME280;31382;50.200;8.674;2023-07-31T17:57:30;99485.13;;;20.53;58.41
45323;BME280;31382;50.200;8.674;2023-07-31T18:02:32;99491.06;;;20.39;58.63
45323;BME280;31382;50.200;8.674;2023-07-31T18:07:36;99473.34;;;20.42;59.02
45323;BME280;31382;50.200;8.674;2023-07-31T18:12:37;99467.72;;;20.59;58.66
45323;BME280;31382;50.200;8.674;2023-07-31T18:17:39;99472.69;;;20.67;58.88
45323;BME280;31382;50.200;8.674;2023-07-31T18:22:41;99466.16;;;20.68;58.90
45323;BME280;31382;50.200;8.674;2023-07-31T18:27:43;99483.13;;;20.75;58.86
45323;BME280;31382;50.200;8.674;2023-07-31T18:32:44;99486.44;;;20.83;59.07
45323;BME280;31382;50.200;8.674;2023-07-31T18:37:46;99490.78;;;20.78;59.60
45323;BME280;31382;50.200;8.674;2023-07-31T18:42:47;99487.56;;;20.87;58.94
45323;BME280;31382;50.200;8.674;2023-07-31T18:47:49;99468.22;;;20.93;59.59
45323;BME280;31382;50.200;8.674;2023-07-31T18:52:50;99454.06;;;21.12;59.09
45323;BME280;31382;50.200;8.674;2023-07-31T18:57:54;99458.44;;;21.18;58.87
45323;BME280;31382;50.200;8.674;2023-07-31T19:02:55;99456.28;;;21.20;59.13
45323;BME280;31382;50.200;8.674;2023-07-31T19:07:57;99449.97;;;21.14;59.61
45323;BME280;31382;50.200;8.674;2023-07-31T19:13:05;99445.84;;;21.07;59.99
45323;BME280;31382;50.200;8.674;2023-07-31T19:18:07;99452.69;;;21.14;59.60
45323;BME280;31382;50.200;8.674;2023-07-31T19:23:08;99450.00;;;21.19;59.83
45323;BME280;31382;50.200;8.674;2023-07-31T19:28:10;99439.06;;;21.19;59.93
45323;BME280;31382;50.200;8.674;2023-07-31T19:33:11;99436.31;;;21.25;59.73
45323;BME280;31382;50.200;8.674;2023-07-31T19:38:14;99440.75;;;21.31;59.27
45323;BME280;31382;50.200;8.674;2023-07-31T19:43:16;99439.66;;;21.37;59.21
45323;BME280;31382;50.200;8.674;2023-07-31T19:48:17;99427.41;;;21.50;59.25
45323;BME280;31382;50.200;8.674;2023-07-31T19:53:20;99422.22;;;21.53;58.84
45323;BME280;31382;50.200;8.674;2023-07-31T19:58:21;99411.22;;;21.33;59.97
45323;BME280;31382;50.200;8.674;2023-07-31T20:03:26;99404.31;;;21.10;60.83
45323;BME280;31382;50.200;8.674;2023-07-31T20:08:27;99396.16;;;20.57;62.26
45323;BME280;31382;50.200;8.674;2023-07-31T20:13:30;99389.69;;;20.20;63.67
45323;BME280;31382;50.200;8.674;2023-07-31T20:18:32;99377.84;;;20.10;65.03
45323;BME280;31382;50.200;8.674;2023-07-31T20:23:33;99381.13;;;20.07;65.16
45323;BME280;31382;50.200;8.674;2023-07-31T20:28:43;99369.13;;;20.08;65.15
45323;BME280;31382;50.200;8.674;2023-07-31T20:33:45;99365.06;;;20.15;65.25
45323;BME280;31382;50.200;8.674;2023-07-31T20:38:46;99366.38;;;20.03;65.57
45323;BME280;31382;50.200;8.674;2023-07-31T20:43:48;99362.91;;;19.75;65.84
45323;BME280;31382;50.200;8.674;2023-07-31T20:48:49;99365.47;;;19.59;66.77
45323;BME280;31382;50.200;8.674;2023-07-31T20:53:50;99357.41;;;19.15;68.19
45323;BME280;31382;50.200;8.674;2023-07-31T20:58:53;99355.75;;;18.87;69.57
45323;BME280;31382;50.200;8.674;2023-07-31T21:03:54;99354.94;;;18.65;70.32
45323;BME280;31382;50.200;8.674;2023-07-31T21:08:56;99361.44;;;18.41;71.46
45323;BME280;31382;50.200;8.674;2023-07-31T21:13:59;99349.31;;;18.32;71.89
45323;BME280;31382;50.200;8.674;2023-07-31T21:19:00;99330.84;;;18.34;72.04
45323;BME280;31382;50.200;8.674;2023-07-31T21:24:02;99321.16;;;18.21;72.73
45323;BME280;31382;50.200;8.674;2023-07-31T21:29:03;99307.91;;;18.25;72.85
45323;BME280;31382;50.200;8.674;2023-07-31T21:34:05;99297.25;;;18.23;73.36
45323;BME280;31382;50.200;8.674;2023-07-31T21:39:06;99290.34;;;18.16;74.02
45323;BME280;31382;50.200;8.674;2023-07-31T21:44:08;99280.97;;;18.07;74.78
45323;BME280;31382;50.200;8.674;2023-07-31T21:49:09;99271.09;;;18.00;75.43
45323;BME280;31382;50.200;8.674;2023-07-31T21:54:10;99260.34;;;18.11;75.44
45323;BME280;31382;50.200;8.674;2023-07-31T21:59:12;99245.91;;;18.05;75.88
45323;BME280;31382;50.200;8.674;2023-07-31T22:04:13;99238.47;;;18.00;76.36
45323;BME280;31382;50.200;8.674;2023-07-31T22:09:15;99233.16;;;18.11;76.17
45323;BME280;31382;50.200;8.674;2023-07-31T22:14:16;99221.09;;;18.01;76.64
45323;BME280;31382;50.200;8.674;2023-07-31T22:19:18;99212.41;;;18.04;76.96
45323;BME280;31382;50.200;8.674;2023-07-31T22:24:19;99205.03;;;18.00;77.25
45323;BME280;31382;50.200;8.674;2023-07-31T22:29:22;99199.78;;;17.93;77.62
45323;BME280;31382;50.200;8.674;2023-07-31T22:34:24;99193.34;;;17.99;77.75
45323;BME280;31382;50.200;8.674;2023-07-31T22:39:25;99186.75;;;17.95;77.93
45323;BME280;31382;50.200;8.674;2023-07-31T22:44:26;99182.94;;;17.96;78.20
45323;BME280;31382;50.200;8.674;2023-07-31T22:49:28;99180.75;;;17.93;78.44
45323;BME280;31382;50.200;8.674;2023-07-31T22:54:29;99174.78;;;17.96;78.32
45323;BME280;31382;50.200;8.674;2023-07-31T22:59:31;99157.66;;;17.96;78.56
45323;BME280;31382;50.200;8.674;2023-07-31T23:04:32;99171.06;;;18.02;78.42
45323;BME280;31382;50.200;8.674;2023-07-31T23:09:33;99148.00;;;18.05;78.31
45323;BME280;31382;50.200;8.674;2023-07-31T23:14:35;99145.69;;;17.97;78.72
45323;BME280;31382;50.200;8.674;2023-07-31T23:19:36;99145.13;;;17.95;78.80
45323;BME280;31382;50.200;8.674;2023-07-31T23:24:38;99151.91;;;17.92;78.91
45323;BME280;31382;50.200;8.674;2023-07-31T23:29:39;99154.13;;;17.95;79.09
45323;BME280;31382;50.200;8.674;2023-07-31T23:34:41;99116.34;;;17.99;79.08
45323;BME280;31382;50.200;8.674;2023-07-31T23:39:43;99088.88;;;17.95;79.15
45323;BME280;31382;50.200;8.674;2023-07-31T23:44:44;99074.84;;;18.09;79.01
45323;BME280;31382;50.200;8.674;2023-07-31T23:49:57;99077.47;;;17.98;79.48
45323;BME280;31382;50.200;8.674;2023-07-31T23:54:58;99060.19;;;18.10;79.25
